Time;durP1;ratioP1;P1;durP2;ratioP2;P2;SDS_P1;SDS_P2;PMS_P1;PMS_P2;Temp;Humidity;BMP_temperature;BMP_pressure;BME280_temperature;BME280_humidity;BME280_pressure;Samples;Min_cycle;Max_cycle;Signal;HPM_P1;HPM_P2
2023/11/23 00:02:16;;;;;;;;;;;;;;;10.53;100.00;102372.94;5058147;28;19935;-40
2023/11/23 00:04:42;;;;;;;;;;;;;;;10.57;100.00;102377.06;5056795;28;19913;-40
2023/11/23 00:07:07;;;;;;;;;;;;;;;10.55;100.00;102377.19;5043150;28;19971;-40
2023/11/23 00:09:32;;;;;;;;;;;;;;;10.56;100.00;102367.31;5035944;28;19913;-42
2023/11/23 00:11:57;;;;;;;;;;;;;;;10.57;100.00;102369.00;5034851;28;19913;-40
2023/11/23 00:14:22;;;;;;;;;;;;;;;10.56;100.00;102361.91;5033272;28;19920;-39
2023/11/23 00:16:48;;;;;;;;;;;;;;;10.56;100.00;102359.22;5033423;28;19913;-41
2023/11/23 00:19:13;;;;;;;;;;;;;;;10.56;100.00;102367.31;5032582;28;19921;-40
2023/11/23 00:21:38;;;;;;;;;;;;;;;10.55;100.00;102366.44;5033183;28;20007;-41
2023/11/23 00:24:04;;;;;;;;;;;;;;;10.58;100.00;102356.38;5032601;28;19956;-40
2023/11/23 00:26:31;;;;;;;;;;;;;;;10.60;100.00;102355.22;5036199;28;19956;-40
2023/11/23 00:28:56;;;;;;;;;;;;;;;10.59;100.00;102352.72;5052995;28;19912;-39
2023/11/23 00:31:22;;;;;;;;;;;;;;;10.60;100.00;102346.31;5052382;28;20377;-40
2023/11/23 00:33:47;;;;;;;;;;;;;;;10.58;100.00;102349.13;5052694;28;20359;-40
2023/11/23 00:36:15;;;;;;;;;;;;;;;10.57;100.00;102355.53;5052651;28;20312;-40
2023/11/23 00:38:43;;;;;;;;;;;;;;;10.59;100.00;102353.56;5052431;28;19912;-40
2023/11/23 00:41:08;;;;;;;;;;;;;;;10.61;100.00;102353.38;5052688;28;20276;-40
2023/11/23 00:43:34;;;;;;;;;;;;;;;10.59;100.00;102337.41;5047653;28;19928;-41
2023/11/23 00:45:59;;;;;;;;;;;;;;;10.60;100.00;102349.84;5032892;28;20086;-40
2023/11/23 00:48:24;;;;;;;;;;;;;;;10.60;100.00;102338.25;5040791;28;20375;-40
2023/11/23 00:50:50;;;;;;;;;;;;;;;10.61;100.00;102330.03;5038062;28;19917;-41
2023/11/23 00:53:15;;;;;;;;;;;;;;;10.58;100.00;102332.16;5052185;28;19919;-40
2023/11/23 00:55:40;;;;;;;;;;;;;;;10.51;100.00;102330.03;5052934;28;19923;-40
2023/11/23 00:58:05;;;;;;;;;;;;;;;10.44;100.00;102328.06;5046585;28;19913;-40
2023/11/23 01:00:30;;;;;;;;;;;;;;;10.42;100.00;102332.75;5032765;28;19917;-40
2023/11/23 01:02:56;;;;;;;;;;;;;;;10.38;100.00;102328.66;5032865;28;19920;-40
2023/11/23 01:05:21;;;;;;;;;;;;;;;10.34;100.00;102330.78;5032536;28;19913;-41
2023/11/23 01:07:46;;;;;;;;;;;;;;;10.30;100.00;102327.53;5032913;28;19913;-39
2023/11/23 01:10:11;;;;;;;;;;;;;;;10.27;100.00;102330.50;5045590;28;19913;-40
2023/11/23 01:12:37;;;;;;;;;;;;;;;10.22;100.00;102327.38;5053021;28;19913;-40
2023/11/23 01:15:02;;;;;;;;;;;;;;;10.21;100.00;102332.88;5052206;28;20328;-41
2023/11/23 01:17:27;;;;;;;;;;;;;;;10.18;100.00;102325.94;5052805;28;19917;-40
2023/11/23 01:19:53;;;;;;;;;;;;;;;10.16;100.00;102324.38;5037622;28;19920;-41
2023/11/23 01:22:18;;;;;;;;;;;;;;;10.18;100.00;102330.47;5034480;28;19917;-40
2023/11/23 01:24:43;;;;;;;;;;;;;;;10.15;100.00;102326.22;5036778;28;19940;-40
2023/11/23 01:27:08;;;;;;;;;;;;;;;10.16;100.00;102317.16;5036750;28;19913;-40
2023/11/23 01:29:34;;;;;;;;;;;;;;;10.14;100.00;102323.66;5045901;28;19917;-40
2023/11/23 01:31:59;;;;;;;;;;;;;;;10.08;100.00;102319.72;5056098;28;19924;-40
2023/11/23 01:34:24;;;;;;;;;;;;;;;10.03;100.00;102328.22;5043401;28;20377;-40
2023/11/23 01:36:49;;;;;;;;;;;;;;;10.00;100.00;102320.41;5045929;28;19917;-40
2023/11/23 01:39:15;;;;;;;;;;;;;;;9.98;100.00;102324.25;5049872;28;19917;-40
2023/11/23 01:41:41;;;;;;;;;;;;;;;9.93;100.00;102329.22;5040735;28;19927;-41
2023/11/23 01:44:06;;;;;;;;;;;;;;;9.92;100.00;102327.50;5050267;28;19971;-40
2023/11/23 01:46:31;;;;;;;;;;;;;;;9.90;100.00;102327.66;5037896;28;19917;-41
2023/11/23 01:48:56;;;;;;;;;;;;;;;9.92;100.00;102330.19;5042464;28;19924;-40
2023/11/23 01:51:22;;;;;;;;;;;;;;;9.91;100.00;102334.72;5051235;28;20098;-42
2023/11/23 01:53:47;;;;;;;;;;;;;;;9.92;100.00;102333.72;5053710;28;19978;-40
2023/11/23 01:56:12;;;;;;;;;;;;;;;9.96;100.00;102337.00;5048817;28;20405;-41
2023/11/23 01:58:37;;;;;;;;;;;;;;;9.98;100.00;102338.56;5027307;28;19940;-41
2023/11/23 02:01:03;;;;;;;;;;;;;;;10.02;100.00;102336.44;5054630;28;19932;-38
2023/11/23 02:03:28;;;;;;;;;;;;;;;10.01;100.00;102337.44;5046752;28;19931;-40
2023/11/23 02:05:54;;;;;;;;;;;;;;;10.05;100.00;102345.06;5039166;28;19958;-39
2023/11/23 02:08:19;;;;;;;;;;;;;;;10.03;100.00;102343.50;5051505;28;19952;-40
2023/11/23 02:10:44;;;;;;;;;;;;;;;10.02;100.00;102347.19;5035569;28;19939;-41
2023/11/23 02:13:09;;;;;;;;;;;;;;;10.02;100.00;102339.97;5045926;28;19926;-41
2023/11/23 02:15:35;;;;;;;;;;;;;;;10.02;100.00;102334.59;5044158;28;19966;-40
2023/11/23 02:18:01;;;;;;;;;;;;;;;10.02;100.00;102345.34;5042489;28;19917;-40
2023/11/23 02:20:26;;;;;;;;;;;;;;;10.01;100.00;102342.81;5050364;28;19923;-41
2023/11/23 02:22:51;;;;;;;;;;;;;;;10.03;100.00;102340.81;5035903;28;19924;-37
2023/11/23 02:25:17;;;;;;;;;;;;;;;10.02;100.00;102331.91;5035597;28;19913;-41
2023/11/23 02:27:42;;;;;;;;;;;;;;;10.02;100.00;102331.06;5052852;28;19943;-40
2023/11/23 02:30:08;;;;;;;;;;;;;;;10.00;100.00;102333.88;5041378;28;20318;-40
2023/11/23 02:32:33;;;;;;;;;;;;;;;9.99;100.00;102331.34;5040307;28;20335;-40
2023/11/23 02:34:58;;;;;;;;;;;;;;;10.01;100.00;102337.44;5047099;28;19923;-40
2023/11/23 02:37:24;;;;;;;;;;;;;;;10.07;100.00;102339.53;5052735;28;19917;-40
2023/11/23 02:39:50;;;;;;;;;;;;;;;10.07;100.00;102340.38;5035641;28;19913;-40
2023/11/23 02:42:15;;;;;;;;;;;;;;;10.13;100.00;102333.59;5051603;28;19924;-40
2023/11/23 02:44:40;;;;;;;;;;;;;;;10.16;100.00;102338.69;5047282;28;20386;-41
2023/11/23 02:47:05;;;;;;;;;;;;;;;10.20;100.00;102328.50;5045376;28;20383;-38
2023/11/23 02:49:31;;;;;;;;;;;;;;;10.18;100.00;102325.94;5045915;28;20482;-40
2023/11/23 02:51:57;;;;;;;;;;;;;;;10.18;100.00;102315.19;5034802;28;19944;-41
2023/11/23 02:54:22;;;;;;;;;;;;;;;10.15;100.00;102325.38;5041855;28;19923;-41
2023/11/23 02:56:47;;;;;;;;;;;;;;;10.13;100.00;102327.38;5036024;28;20007;-41
2023/11/23 02:59:13;;;;;;;;;;;;;;;10.10;100.00;102326.66;5038135;28;20012;-41
2023/11/23 03:01:39;;;;;;;;;;;;;;;10.07;100.00;102323.41;5049618;28;20388;-41
2023/11/23 03:04:04;;;;;;;;;;;;;;;10.03;100.00;102313.91;5039947;28;20375;-41
2023/11/23 03:06:29;;;;;;;;;;;;;;;10.01;100.00;102311.38;5038485;28;20371;-39
2023/11/23 03:08:55;;;;;;;;;;;;;;;10.01;100.00;102313.22;5037676;28;20011;-39
2023/11/23 03:11:21;;;;;;;;;;;;;;;9.99;100.00;102317.91;5037952;28;19913;-41
2023/11/23 03:13:46;;;;;;;;;;;;;;;10.00;100.00;102316.88;5035419;28;20433;-40
2023/11/23 03:16:12;;;;;;;;;;;;;;;10.00;100.00;102327.66;5051279;28;19920;-41
2023/11/23 03:18:37;;;;;;;;;;;;;;;9.98;100.00;102324.25;5058636;28;19917;-41
2023/11/23 03:21:02;;;;;;;;;;;;;;;9.98;100.00;102305.41;5057877;28;19966;-40
2023/11/23 03:23:27;;;;;;;;;;;;;;;9.96;100.00;102307.44;5054705;28;19920;-40
2023/11/23 03:25:53;;;;;;;;;;;;;;;9.95;100.00;102303.84;5044729;28;19956;-41
2023/11/23 03:28:19;;;;;;;;;;;;;;;9.95;100.00;102297.63;5034401;28;19913;-41
2023/11/23 03:30:44;;;;;;;;;;;;;;;9.90;100.00;102300.78;5034914;28;19913;-40
2023/11/23 03:33:10;;;;;;;;;;;;;;;9.89;100.00;102305.28;5032665;28;19920;-41
2023/11/23 03:35:36;;;;;;;;;;;;;;;9.91;100.00;102301.63;5032990;28;19924;-40
2023/11/23 03:38:03;;;;;;;;;;;;;;;9.90;100.00;102303.47;5034318;28;19920;-41
2023/11/23 03:40:28;;;;;;;;;;;;;;;9.89;100.00;102310.66;5033279;28;19921;-40
2023/11/23 03:42:53;;;;;;;;;;;;;;;9.89;100.00;102294.53;5034021;28;19968;-41
2023/11/23 03:45:18;;;;;;;;;;;;;;;9.86;100.00;102305.56;5033855;28;19920;-41
2023/11/23 03:47:44;;;;;;;;;;;;;;;9.89;100.00;102316.03;5050482;28;19916;-40
2023/11/23 03:50:09;;;;;;;;;;;;;;;9.85;100.00;102303.88;5054267;28;19927;-42
2023/11/23 03:52:34;;;;;;;;;;;;;;;9.86;100.00;102304.72;5048307;28;19917;-40
2023/11/23 03:54:59;;;;;;;;;;;;;;;9.84;100.00;102302.16;5029974;28;19917;-41
2023/11/23 03:57:24;;;;;;;;;;;;;;;9.84;100.00;102293.25;5044555;28;20015;-39
2023/11/23 03:59:50;;;;;;;;;;;;;;;9.84;100.00;102302.16;5053606;28;19982;-40
2023/11/23 04:02:15;;;;;;;;;;;;;;;9.85;100.00;102303.03;5050426;28;19917;-40
2023/11/23 04:04:40;;;;;;;;;;;;;;;9.87;100.00;102307.28;5033765;28;20319;-41
2023/11/23 04:07:05;;;;;;;;;;;;;;;9.91;100.00;102304.31;5034187;28;20283;-40
2023/11/23 04:09:30;;;;;;;;;;;;;;;9.91;100.00;102307.00;5038014;28;19917;-41
2023/11/23 04:11:56;;;;;;;;;;;;;;;9.90;100.00;102295.41;5040260;28;20287;-40
2023/11/23 04:14:21;;;;;;;;;;;;;;;9.89;100.00;102299.91;5040723;28;19928;-41
2023/11/23 04:16:46;;;;;;;;;;;;;;;9.91;100.00;102294.41;5040699;28;20379;-41
2023/11/23 04:19:11;;;;;;;;;;;;;;;9.91;100.00;102307.00;5046849;28;19936;-39
2023/11/23 04:21:36;;;;;;;;;;;;;;;9.89;100.00;102299.91;5045519;28;20047;-40
2023/11/23 04:24:02;;;;;;;;;;;;;;;9.89;100.00;102302.59;5032357;28;19968;-39
2023/11/23 04:26:28;;;;;;;;;;;;;;;9.88;100.00;102303.59;5014805;28;19956;-40
2023/11/23 04:28:53;;;;;;;;;;;;;;;9.91;100.00;102312.38;5013443;28;20533;-40
2023/11/23 04:31:19;;;;;;;;;;;;;;;9.91;100.00;102312.38;5016502;28;19920;-40
2023/11/23 04:33:44;;;;;;;;;;;;;;;9.90;100.00;102300.78;5021697;28;20015;-41
2023/11/23 04:36:11;;;;;;;;;;;;;;;9.91;100.00;102298.94;5037017;28;19917;-41
2023/11/23 04:38:36;;;;;;;;;;;;;;;9.93;100.00;102299.66;5035537;28;19913;-40
2023/11/23 04:41:01;;;;;;;;;;;;;;;9.89;100.00;102297.22;5016407;28;19920;-39
2023/11/23 04:43:26;;;;;;;;;;;;;;;9.87;100.00;102307.28;5012009;28;19917;-40
2023/11/23 04:45:52;;;;;;;;;;;;;;;9.86;100.00;102310.94;4996442;28;19913;-40
2023/11/23 04:48:17;;;;;;;;;;;;;;;9.85;100.00;102303.03;5014007;28;19920;-41
2023/11/23 04:50:42;;;;;;;;;;;;;;;9.83;100.00;102308.53;5014181;28;19914;-40
2023/11/23 04:53:08;;;;;;;;;;;;;;;9.82;100.00;102306.84;5013971;28;19913;-40
2023/11/23 04:55:33;;;;;;;;;;;;;;;9.83;100.00;102299.63;5031588;28;19917;-40
2023/11/23 04:57:58;;;;;;;;;;;;;;;9.83;100.00;102295.09;5024626;28;20009;-41
2023/11/23 05:00:26;;;;;;;;;;;;;;;9.83;100.00;102305.84;5017256;28;20334;-41
2023/11/23 05:02:52;;;;;;;;;;;;;;;9.84;100.00;102302.16;5017409;28;19914;-40
2023/11/23 05:05:17;;;;;;;;;;;;;;;9.85;100.00;102306.56;5029837;28;19923;-40
2023/11/23 05:07:42;;;;;;;;;;;;;;;9.87;100.00;102307.28;5037536;28;19912;-40
2023/11/23 05:10:08;;;;;;;;;;;;;;;9.92;100.00;102297.94;5037214;28;20378;-40
2023/11/23 05:12:33;;;;;;;;;;;;;;;9.97;100.00;102301.03;5027372;28;20279;-40
2023/11/23 05:14:58;;;;;;;;;;;;;;;9.95;100.00;102305.72;5022251;28;19930;-41
2023/11/23 05:17:23;;;;;;;;;;;;;;;9.93;100.00;102289.72;5025634;28;20383;-41
2023/11/23 05:19:49;;;;;;;;;;;;;;;9.94;100.00;102282.50;5011650;28;20397;-41
2023/11/23 05:22:14;;;;;;;;;;;;;;;9.96;100.00;102284.06;5017749;28;20359;-39
2023/11/23 05:24:39;;;;;;;;;;;;;;;9.99;100.00;102282.94;5012289;28;19924;-41
2023/11/23 05:27:06;;;;;;;;;;;;;;;9.99;100.00;102274.84;5010552;28;19925;-40
2023/11/23 05:29:31;;;;;;;;;;;;;;;9.99;100.00;102277.53;5035750;28;19917;-41
2023/11/23 05:31:56;;;;;;;;;;;;;;;10.03;100.00;102268.19;5028896;28;20334;-41
2023/11/23 05:34:22;;;;;;;;;;;;;;;10.09;100.00;102271.16;5020469;28;20290;-41
2023/11/23 05:36:47;;;;;;;;;;;;;;;10.16;100.00;102276.81;5027312;28;19928;-41
2023/11/23 05:39:12;;;;;;;;;;;;;;;10.17;100.00;102278.50;5021004;28;19913;-41
2023/11/23 05:41:38;;;;;;;;;;;;;;;10.18;100.00;102277.50;5034842;28;19917;-41
2023/11/23 05:44:03;;;;;;;;;;;;;;;10.18;100.00;102277.50;5035712;28;20330;-42
2023/11/23 05:46:30;;;;;;;;;;;;;;;10.16;100.00;102274.09;5036823;28;19927;-41
2023/11/23 05:48:56;;;;;;;;;;;;;;;10.17;100.00;102270.44;5035174;28;19917;-40
2023/11/23 05:51:22;;;;;;;;;;;;;;;10.14;100.00;102265.34;5031002;28;19923;-40
2023/11/23 05:53:47;;;;;;;;;;;;;;;10.11;100.00;102266.50;5026043;28;20297;-41
2023/11/23 05:56:12;;;;;;;;;;;;;;;10.13;100.00;102258.25;5015568;28;19921;-42
2023/11/23 05:58:37;;;;;;;;;;;;;;;10.14;100.00;102242.97;5019423;28;20032;-41
2023/11/23 06:01:03;;;;;;;;;;;;;;;10.10;100.00;102253.19;5016391;28;20315;-41
2023/11/23 06:03:28;;;;;;;;;;;;;;;10.08;100.00;102252.47;5017106;28;19913;-41
2023/11/23 06:05:53;;;;;;;;;;;;;;;10.06;100.00;102257.16;5017421;28;19927;-41
2023/11/23 06:08:18;;;;;;;;;;;;;;;10.03;100.00;102252.91;5028821;28;19929;-41
2023/11/23 06:10:43;;;;;;;;;;;;;;;9.99;100.00;102253.34;5022821;28;19923;-41
2023/11/23 06:13:10;;;;;;;;;;;;;;;10.00;100.00;102252.34;5031128;28;19963;-40
2023/11/23 06:15:35;;;;;;;;;;;;;;;10.02;100.00;102261.13;5035143;28;20323;-40
2023/11/23 06:18:00;;;;;;;;;;;;;;;9.99;100.00;102256.03;5035738;28;19917;-41
2023/11/23 06:20:25;;;;;;;;;;;;;;;10.00;100.00;102260.41;5031403;28;19928;-41
2023/11/23 06:22:50;;;;;;;;;;;;;;;10.00;100.00;102255.03;5017551;28;19920;-42
2023/11/23 06:25:16;;;;;;;;;;;;;;;9.97;100.00;102252.63;5017439;28;20000;-42
2023/11/23 06:27:41;;;;;;;;;;;;;;;9.97;100.00;102261.53;5020854;28;19923;-41
2023/11/23 06:30:06;;;;;;;;;;;;;;;10.03;100.00;102257.41;5038323;28;19913;-41
2023/11/23 06:32:32;;;;;;;;;;;;;;;10.06;100.00;102258.00;5035333;28;19916;-42
2023/11/23 06:34:57;;;;;;;;;;;;;;;10.07;100.00;102253.47;5029422;28;20306;-41
2023/11/23 06:37:22;;;;;;;;;;;;;;;10.09;100.00;102240.72;5032314;28;19923;-42
2023/11/23 06:39:47;;;;;;;;;;;;;;;10.13;100.00;102252.88;5035392;28;19940;-41
2023/11/23 06:42:13;;;;;;;;;;;;;;;10.11;100.00;102254.88;5035198;28;19913;-41
2023/11/23 06:44:38;;;;;;;;;;;;;;;10.11;100.00;102249.50;5033754;28;19913;-41
2023/11/23 06:47:04;;;;;;;;;;;;;;;10.10;100.00;102254.00;5028881;28;19975;-40
2023/11/23 06:49:29;;;;;;;;;;;;;;;10.08;100.00;102261.41;5016400;28;19917;-41
2023/11/23 06:51:55;;;;;;;;;;;;;;;10.04;100.00;102259.97;5018885;28;19949;-42
2023/11/23 06:54:20;;;;;;;;;;;;;;;10.06;100.00;102257.16;5036725;28;19913;-41
2023/11/23 06:56:45;;;;;;;;;;;;;;;10.07;100.00;102248.09;5035120;28;20288;-40
2023/11/23 06:59:10;;;;;;;;;;;;;;;10.11;100.00;102254.88;5037086;28;19976;-40
2023/11/23 07:01:35;;;;;;;;;;;;;;;10.12;100.00;102261.97;5038946;28;20360;-40
2023/11/23 07:04:01;;;;;;;;;;;;;;;10.10;100.00;102259.41;5024430;28;20378;-41
2023/11/23 07:06:26;;;;;;;;;;;;;;;10.14;100.00;102253.72;5013437;28;20410;-41
2023/11/23 07:08:51;;;;;;;;;;;;;;;10.14;100.00;102253.72;5030887;28;20261;-41
2023/11/23 07:11:19;;;;;;;;;;;;;;;10.14;100.00;102254.59;5023150;28;19917;-41
2023/11/23 07:13:48;;;;;;;;;;;;;;;10.16;100.00;102252.59;5022529;28;19925;-41
2023/11/23 07:16:13;;;;;;;;;;;;;;;10.16;100.00;102247.22;5025226;28;19963;-41
2023/11/23 07:18:39;;;;;;;;;;;;;;;10.19;100.00;102268.47;5019832;28;20317;-41
2023/11/23 07:21:04;;;;;;;;;;;;;;;10.15;100.00;102272.44;5017531;28;20259;-41
2023/11/23 07:23:30;;;;;;;;;;;;;;;10.15;100.00;102280.50;5018518;28;19917;-40
2023/11/23 07:25:55;;;;;;;;;;;;;;;10.16;100.00;102273.25;5033170;28;19917;-41
2023/11/23 07:28:26;;;;;;;;;;;;;;;10.19;100.00;102267.59;5030870;28;19963;-40
2023/11/23 07:30:52;;;;;;;;;;;;;;;10.20;100.00;102262.06;5030708;28;19925;-41
2023/11/23 07:33:17;;;;;;;;;;;;;;;10.25;100.00;102272.41;5024887;28;19945;-41
2023/11/23 07:35:46;;;;;;;;;;;;;;;10.29;100.00;102265.78;4986249;28;20064;-41
2023/11/23 07:38:12;;;;;;;;;;;;;;;10.37;100.00;102262.34;4987481;28;20287;-41
2023/11/23 07:40:38;;;;;;;;;;;;;;;10.43;100.00;102259.94;5009416;28;19920;-39
2023/11/23 07:43:04;;;;;;;;;;;;;;;10.48;100.00;102257.66;5010387;28;19926;-41
2023/11/23 07:45:29;;;;;;;;;;;;;;;10.53;100.00;102246.44;5009962;28;19913;-42
2023/11/23 07:47:55;;;;;;;;;;;;;;;10.60;100.00;102261.00;5009127;28;20514;-42
2023/11/23 07:50:20;;;;;;;;;;;;;;;10.75;100.00;102239.84;5008918;28;19925;-42
2023/11/23 07:52:46;;;;;;;;;;;;;;;10.88;100.00;102236.81;5010222;28;20566;-42
2023/11/23 07:55:12;;;;;;;;;;;;;;;10.98;100.00;102229.53;5011358;28;20352;-41
2023/11/23 07:57:38;;;;;;;;;;;;;;;11.05;100.00;102217.13;5010403;28;20245;-41
2023/11/23 08:00:04;;;;;;;;;;;;;;;11.07;100.00;102214.28;5011777;28;19963;-41
2023/11/23 08:02:30;;;;;;;;;;;;;;;11.07;100.00;102209.75;5009039;28;19913;-40
2023/11/23 08:04:55;;;;;;;;;;;;;;;11.10;100.00;102212.13;5012033;28;20272;-41
2023/11/23 08:07:20;;;;;;;;;;;;;;;11.11;100.00;102194.97;4993195;28;20008;-41
2023/11/23 08:09:46;;;;;;;;;;;;;;;11.12;100.00;102204.75;5009481;28;20364;-41
2023/11/23 08:12:11;;;;;;;;;;;;;;;11.12;100.00;102207.44;5008583;28;19917;-42
2023/11/23 08:14:37;;;;;;;;;;;;;;;11.18;100.00;102217.59;5007791;28;19917;-42
2023/11/23 08:17:03;;;;;;;;;;;;;;;11.20;100.00;102221.00;5007519;28;19932;-40
2023/11/23 08:19:30;;;;;;;;;;;;;;;11.21;100.00;102209.22;5011044;28;20020;-41
2023/11/23 08:21:56;;;;;;;;;;;;;;;11.24;100.00;102199.13;5009276;28;19917;-41
2023/11/23 08:24:21;;;;;;;;;;;;;;;11.28;100.00;102177.13;5008222;28;20303;-40
2023/11/23 08:26:46;;;;;;;;;;;;;;;11.29;100.00;102169.88;5007313;28;19925;-41
2023/11/23 08:29:11;;;;;;;;;;;;;;;11.80;100.00;102162.91;5009813;28;19996;-40
2023/11/23 08:31:37;;;;;;;;;;;;;;;12.48;100.00;102173.78;5007856;28;20375;-42
2023/11/23 08:34:03;;;;;;;;;;;;;;;13.10;100.00;102167.22;5007860;28;20596;-41
2023/11/23 08:36:28;;;;;;;;;;;;;;;13.59;100.00;102148.38;5009180;28;20287;-41
2023/11/23 08:38:54;;;;;;;;;;;;;;;14.03;100.00;102137.97;5008645;28;19917;-40
2023/11/23 08:41:19;;;;;;;;;;;;;;;14.15;100.00;102135.72;5009539;28;20644;-39
2023/11/23 08:43:46;;;;;;;;;;;;;;;14.10;100.00;102121.88;5010145;28;19937;-40
2023/11/23 08:46:11;;;;;;;;;;;;;;;13.62;100.00;102118.25;5009387;28;19923;-40
2023/11/23 08:48:36;;;;;;;;;;;;;;;13.05;100.00;102119.06;5009635;28;19917;-41
2023/11/23 08:51:03;;;;;;;;;;;;;;;12.88;100.00;102120.91;4988264;28;20020;-41
2023/11/23 08:53:28;;;;;;;;;;;;;;;12.75;100.00;102125.94;5013336;28;19923;-41
2023/11/23 08:55:54;;;;;;;;;;;;;;;12.86;100.00;102135.59;5016224;28;20370;-41
2023/11/23 08:58:19;;;;;;;;;;;;;;;12.92;100.00;102130.34;5014929;28;20308;-40
2023/11/23 09:00:44;;;;;;;;;;;;;;;12.79;100.00;102132.69;5011819;28;20379;-41
2023/11/23 09:03:10;;;;;;;;;;;;;;;12.75;100.00;102123.22;5012115;28;19945;-40
2023/11/23 09:05:35;;;;;;;;;;;;;;;12.52;100.00;102115.72;5013694;28;19925;-40
2023/11/23 09:08:06;;;;;;;;;;;;;;;12.36;100.00;102126.47;5010234;28;19932;-41
2023/11/23 09:10:31;;;;;;;;;;;;;;;12.56;100.00;102132.47;5008927;28;19944;-40
2023/11/23 09:12:57;;;;;;;;;;;;;;;12.75;100.00;102134.03;5012504;28;19991;-41
2023/11/23 09:15:22;;;;;;;;;;;;;;;12.82;100.00;102136.91;5014033;28;20299;-41
2023/11/23 09:17:47;;;;;;;;;;;;;;;12.80;100.00;102134.41;5012771;28;19925;-42
2023/11/23 09:20:13;;;;;;;;;;;;;;;12.74;100.00;102129.63;5014601;28;20000;-41
2023/11/23 09:22:39;;;;;;;;;;;;;;;12.66;100.00;102119.66;5008488;28;19917;-40
2023/11/23 09:25:06;;;;;;;;;;;;;;;12.61;100.00;102113.03;5005425;28;20020;-41
2023/11/23 09:27:31;;;;;;;;;;;;;;;12.50;100.00;102101.53;5013842;28;19963;-40
2023/11/23 09:29:57;;;;;;;;;;;;;;;12.43;100.00;102111.31;5015507;28;19917;-39
2023/11/23 09:32:22;;;;;;;;;;;;;;;12.38;100.00;102118.22;5007184;28;19928;-39
2023/11/23 09:34:48;;;;;;;;;;;;;;;12.40;100.00;102114.34;4996588;28;19936;-40
2023/11/23 09:37:13;;;;;;;;;;;;;;;12.31;100.00;102107.22;5020829;28;19914;-40
2023/11/23 09:39:38;;;;;;;;;;;;;;;12.41;100.00;102097.13;5018823;28;19924;-41
2023/11/23 09:42:04;;;;;;;;;;;;;;;12.62;100.00;102096.69;5021678;28;19917;-39
2023/11/23 09:44:29;;;;;;;;;;;;;;;12.78;100.00;102079.69;5002273;28;20024;-41
2023/11/23 09:46:55;;;;;;;;;;;;;;;12.91;100.00;102074.63;5000587;28;19932;-40
2023/11/23 09:49:21;;;;;;;;;;;;;;;13.19;100.00;102060.78;4998859;28;19921;-40
2023/11/23 09:51:46;;;;;;;;;;;;;;;13.43;100.00;102078.03;5016726;28;20314;-39
2023/11/23 09:54:14;;;;;;;;;;;;;;;13.60;100.00;102067.03;5003063;28;19920;-41
2023/11/23 09:56:39;;;;;;;;;;;;;;;13.60;100.00;102077.84;4997795;28;19921;-41
2023/11/23 09:59:04;;;;;;;;;;;;;;;13.61;100.00;102086.78;5014909;28;19921;-42
2023/11/23 10:01:30;;;;;;;;;;;;;;;13.48;100.00;102078.34;5013593;28;19917;-41
2023/11/23 10:03:56;;;;;;;;;;;;;;;13.28;100.00;102086.84;4996675;28;19975;-40
2023/11/23 10:06:21;;;;;;;;;;;;;;;13.15;100.00;102091.88;5010317;28;19975;-41
2023/11/23 10:08:48;;;;;;;;;;;;;;;13.14;100.00;102088.34;5012106;28;19925;-40
2023/11/23 10:11:14;;;;;;;;;;;;;;;13.04;100.00;102093.06;5017556;28;19917;-39
2023/11/23 10:13:39;;;;;;;;;;;;;;;12.85;100.00;102098.75;5009409;28;19914;-40
2023/11/23 10:16:04;;;;;;;;;;;;;;;12.75;100.00;102104.31;5014046;28;19925;-40
2023/11/23 10:18:41;;;;;;;;;;;;;;;12.74;100.00;102097.22;5016571;28;19948;-42
2023/11/23 10:21:09;;;;;;;;;;;;;;;12.72;100.00;102096.56;4992289;28;20283;-41
2023/11/23 10:23:35;;;;;;;;;;;;;;;12.72;100.00;102101.97;5016170;28;19972;-41
2023/11/23 10:26:02;;;;;;;;;;;;;;;12.75;100.00;102096.22;5012107;28;19917;-41
2023/11/23 10:28:27;;;;;;;;;;;;;;;12.86;100.00;102089.66;5021164;28;19984;-40
2023/11/23 10:30:54;;;;;;;;;;;;;;;12.86;100.00;102074.28;4995699;28;20020;-41
2023/11/23 10:33:20;;;;;;;;;;;;;;;12.85;100.00;102072.59;5018881;28;19928;-42
2023/11/23 10:35:50;;;;;;;;;;;;;;;12.94;100.00;102076.16;5005499;28;19944;-39
2023/11/23 10:38:15;;;;;;;;;;;;;;;12.98;100.00;102068.53;5014604;28;19975;-40
2023/11/23 10:40:41;;;;;;;;;;;;;;;12.98;100.00;102055.91;5021115;28;19953;-41
2023/11/23 10:43:09;;;;;;;;;;;;;;;12.98;100.00;102055.03;5018157;28;20010;-40
2023/11/23 10:45:35;;;;;;;;;;;;;;;13.01;100.00;102055.56;5013650;28;19925;-41
2023/11/23 10:48:01;;;;;;;;;;;;;;;13.38;100.00;102041.53;5013477;28;19913;-40
2023/11/23 10:50:26;;;;;;;;;;;;;;;13.72;100.00;102050.44;4994891;28;19928;-40
2023/11/23 10:52:54;;;;;;;;;;;;;;;13.98;100.00;102009.56;5020446;28;19931;-40
2023/11/23 10:55:19;;;;;;;;;;;;;;;14.21;100.00;102001.50;5019544;28;19932;-41
2023/11/23 10:57:46;;;;;;;;;;;;;;;14.08;100.00;101993.97;5020999;28;20000;-41
2023/11/23 11:00:22;;;;;;;;;;;;;;;13.63;100.00;101995.50;5003598;28;19921;-41
2023/11/23 11:02:48;;;;;;;;;;;;;;;13.57;100.00;101990.78;5003271;28;19925;-40
2023/11/23 11:05:23;;;;;;;;;;;;;;;13.67;100.00;101986.03;5002740;28;19917;-41
2023/11/23 11:08:01;;;;;;;;;;;;;;;13.95;100.00;101966.63;5014035;28;19980;-42
2023/11/23 11:10:33;;;;;;;;;;;;;;;14.31;100.00;101952.56;5017644;28;19928;-42
2023/11/23 11:13:05;;;;;;;;;;;;;;;14.44;100.00;101936.56;5022046;28;20003;-41
2023/11/23 11:15:31;;;;;;;;;;;;;;;14.26;100.00;101936.84;5014328;28;19921;-42
2023/11/23 11:18:07;;;;;;;;;;;;;;;14.23;100.00;101926.38;5020579;28;19928;-42
2023/11/23 11:20:36;;;;;;;;;;;;;;;14.50;100.00;101916.84;5020944;28;19917;-41
2023/11/23 11:23:02;;;;;;;;;;;;;;;14.79;100.00;101921.53;4996452;28;20596;-41
2023/11/23 11:25:40;;;;;;;;;;;;;;;14.85;100.00;101917.25;5025527;28;19921;-41
2023/11/23 11:28:09;;;;;;;;;;;;;;;15.07;100.00;101905.53;5031828;28;19951;-42
2023/11/23 11:30:36;;;;;;;;;;;;;;;14.75;100.00;101914.81;5027709;28;20056;-41
2023/11/23 11:33:03;;;;;;;;;;;;;;;14.95;100.00;101920.53;5032546;28;19944;-42
2023/11/23 11:35:31;;;;;;;;;;;;;;;15.37;100.00;101919.09;5028318;28;20005;-41
2023/11/23 11:37:57;;;;;;;;;;;;;;;15.56;100.00;101907.69;5033356;28;19928;-41
2023/11/23 11:40:22;;;;;;;;;;;;;;;15.50;100.00;101915.72;5016895;28;20015;-41
2023/11/23 11:42:47;;;;;;;;;;;;;;;15.37;100.00;101908.22;5032754;28;19931;-42
2023/11/23 11:45:12;;;;;;;;;;;;;;;15.24;100.00;101898.03;5021107;28;20402;-41
2023/11/23 11:47:39;;;;;;;;;;;;;;;15.05;100.00;101891.31;5033376;28;20264;-41
2023/11/23 11:50:04;;;;;;;;;;;;;;;14.58;100.00;101884.31;5034910;28;20280;-42
2023/11/23 11:52:29;;;;;;;;;;;;;;;14.50;100.00;101906.03;5008009;28;19931;-41
2023/11/23 11:54:55;;;;;;;;;;;;;;;14.40;100.00;101889.16;5026006;28;20275;-41
2023/11/23 11:57:20;;;;;;;;;;;;;;;14.49;100.00;101879.97;5008661;28;19925;-41
2023/11/23 11:59:46;;;;;;;;;;;;;;;14.45;100.00;101889.47;5028456;28;20031;-42
2023/11/23 12:02:11;;;;;;;;;;;;;;;14.36;100.00;101871.63;5029176;28;19913;-41
2023/11/23 12:04:38;;;;;;;;;;;;;;;14.27;100.00;101863.56;5029010;28;20413;-41
2023/11/23 12:07:11;;;;;;;;;;;;;;;14.26;100.00;101867.28;5027166;28;20344;-41
2023/11/23 12:09:36;;;;;;;;;;;;;;;14.14;100.00;101863.31;5017817;28;19944;-42
2023/11/23 12:12:04;;;;;;;;;;;;;;;14.15;100.00;101875.81;5027591;28;19913;-40
2023/11/23 12:14:35;;;;;;;;;;;;;;;14.17;100.00;101879.19;5021946;28;19942;-41
2023/11/23 12:17:10;;;;;;;;;;;;;;;14.07;100.00;101867.78;5027936;28;19998;-42
2023/11/23 12:19:35;;;;;;;;;;;;;;;13.94;100.00;101873.75;5027106;28;19928;-41
2023/11/23 12:22:02;;;;;;;;;;;;;;;13.79;100.00;101865.56;5027532;28;19913;-40